sensor_id;sensor_type;location;lat;lon;timestamp;P1;durP1;ratioP1;P2;durP2;ratioP2
78207;SDS011;67481;50.244;18.288;2023-02-28T00:01:00;10.73;;;3.67;;
78207;SDS011;67481;50.244;18.288;2023-02-28T00:03:46;12.18;;;4.00;;
78207;SDS011;67481;50.244;18.288;2023-02-28T00:06:32;11.48;;;4.18;;
78207;SDS011;67481;50.244;18.288;2023-02-28T00:09:17;14.30;;;4.28;;
78207;SDS011;67481;50.244;18.288;2023-02-28T00:12:04;11.80;;;3.97;;
78207;SDS011;67481;50.244;18.288;2023-02-28T00:14:55;14.98;;;5.72;;
78207;SDS011;67481;50.244;18.288;2023-02-28T00:17:40;11.35;;;4.30;;
78207;SDS011;67481;50.244;18.288;2023-02-28T00:20:26;12.07;;;4.38;;
78207;SDS011;67481;50.244;18.288;2023-02-28T00:23:12;14.40;;;4.50;;
78207;SDS011;67481;50.244;18.288;2023-02-28T00:25:58;14.65;;;4.55;;
78207;SDS011;67481;50.244;18.288;2023-02-28T00:28:43;13.93;;;4.07;;
78207;SDS011;67481;50.244;18.288;2023-02-28T00:31:28;12.80;;;4.63;;
78207;SDS011;67481;50.244;18.288;2023-02-28T00:34:14;13.43;;;4.35;;
78207;SDS011;67481;50.244;18.288;2023-02-28T00:37:00;16.65;;;5.10;;
78207;SDS011;67481;50.244;18.288;2023-02-28T00:39:46;13.05;;;4.32;;
78207;SDS011;67481;50.244;18.288;2023-02-28T00:42:34;10.93;;;3.67;;
78207;SDS011;67481;50.244;18.288;2023-02-28T00:45:20;13.40;;;3.95;;
78207;SDS011;67481;50.244;18.288;2023-02-28T00:48:06;12.07;;;4.45;;
78207;SDS011;67481;50.244;18.288;2023-02-28T00:50:51;12.48;;;4.60;;
78207;SDS011;67481;50.244;18.288;2023-02-28T00:53:37;15.07;;;4.45;;
78207;SDS011;67481;50.244;18.288;2023-02-28T00:56:23;12.70;;;4.65;;
78207;SDS011;67481;50.244;18.288;2023-02-28T00:59:08;14.23;;;4.38;;
78207;SDS011;67481;50.244;18.288;2023-02-28T01:01:53;13.88;;;4.70;;
78207;SDS011;67481;50.244;18.288;2023-02-28T01:04:39;15.43;;;4.40;;
78207;SDS011;67481;50.244;18.288;2023-02-28T01:07:25;13.02;;;3.33;;
78207;SDS011;67481;50.244;18.288;2023-02-28T01:10:11;9.57;;;3.03;;
78207;SDS011;67481;50.244;18.288;2023-02-28T01:12:57;11.25;;;4.22;;
78207;SDS011;67481;50.244;18.288;2023-02-28T01:15:49;11.57;;;4.22;;
78207;SDS011;67481;50.244;18.288;2023-02-28T01:18:37;14.23;;;4.30;;
78207;SDS011;67481;50.244;18.288;2023-02-28T01:21:24;10.57;;;3.53;;
78207;SDS011;67481;50.244;18.288;2023-02-28T01:24:10;15.23;;;3.95;;
78207;SDS011;67481;50.244;18.288;2023-02-28T01:26:55;11.43;;;4.68;;
78207;SDS011;67481;50.244;18.288;2023-02-28T01:29:41;13.23;;;4.45;;
78207;SDS011;67481;50.244;18.288;2023-02-28T01:32:28;11.75;;;3.65;;
78207;SDS011;67481;50.244;18.288;2023-02-28T01:35:14;10.38;;;3.15;;
78207;SDS011;67481;50.244;18.288;2023-02-28T01:37:59;9.32;;;3.35;;
78207;SDS011;67481;50.244;18.288;2023-02-28T01:41:05;12.35;;;4.10;;
78207;SDS011;67481;50.244;18.288;2023-02-28T01:43:54;12.73;;;4.03;;
78207;SDS011;67481;50.244;18.288;2023-02-28T01:46:41;6.28;;;2.25;;
78207;SDS011;67481;50.244;18.288;2023-02-28T01:49:28;7.07;;;2.90;;
78207;SDS011;67481;50.244;18.288;2023-02-28T01:52:13;13.43;;;4.57;;
78207;SDS011;67481;50.244;18.288;2023-02-28T01:55:04;8.50;;;3.25;;
78207;SDS011;67481;50.244;18.288;2023-02-28T01:57:52;12.93;;;4.32;;
78207;SDS011;67481;50.244;18.288;2023-02-28T02:00:39;15.32;;;4.32;;
78207;SDS011;67481;50.244;18.288;2023-02-28T02:03:28;14.05;;;4.50;;
78207;SDS011;67481;50.244;18.288;2023-02-28T02:06:14;10.48;;;3.92;;
78207;SDS011;67481;50.244;18.288;2023-02-28T02:09:00;13.52;;;4.65;;
78207;SDS011;67481;50.244;18.288;2023-02-28T02:11:46;14.40;;;4.80;;
78207;SDS011;67481;50.244;18.288;2023-02-28T02:17:48;10.77;;;3.60;;
78207;SDS011;67481;50.244;18.288;2023-02-28T02:27:14;12.30;;;4.35;;
78207;SDS011;67481;50.244;18.288;2023-02-28T02:36:27;5.10;;;2.03;;
78207;SDS011;67481;50.244;18.288;2023-02-28T02:42:14;13.27;;;4.50;;
78207;SDS011;67481;50.244;18.288;2023-02-28T02:45:15;12.38;;;3.95;;
78207;SDS011;67481;50.244;18.288;2023-02-28T02:48:06;4.45;;;1.52;;
78207;SDS011;67481;50.244;18.288;2023-02-28T02:50:55;15.70;;;5.40;;
78207;SDS011;67481;50.244;18.288;2023-02-28T02:53:47;18.98;;;6.10;;
78207;SDS011;67481;50.244;18.288;2023-02-28T02:56:35;11.05;;;4.30;;
78207;SDS011;67481;50.244;18.288;2023-02-28T02:59:21;13.55;;;4.38;;
78207;SDS011;67481;50.244;18.288;2023-02-28T03:02:11;12.05;;;4.30;;
78207;SDS011;67481;50.244;18.288;2023-02-28T03:04:58;11.45;;;4.32;;
78207;SDS011;67481;50.244;18.288;2023-02-28T03:07:50;11.68;;;4.05;;
78207;SDS011;67481;50.244;18.288;2023-02-28T03:10:37;15.85;;;4.63;;
78207;SDS011;67481;50.244;18.288;2023-02-28T03:16:35;10.00;;;3.83;;
78207;SDS011;67481;50.244;18.288;2023-02-28T03:19:29;11.18;;;3.78;;
78207;SDS011;67481;50.244;18.288;2023-02-28T03:22:40;16.42;;;4.22;;
78207;SDS011;67481;50.244;18.288;2023-02-28T03:31:58;7.97;;;3.30;;
78207;SDS011;67481;50.244;18.288;2023-02-28T03:34:50;15.45;;;6.45;;
78207;SDS011;67481;50.244;18.288;2023-02-28T03:37:43;16.02;;;5.82;;
78207;SDS011;67481;50.244;18.288;2023-02-28T03:40:30;15.07;;;4.55;;
78207;SDS011;67481;50.244;18.288;2023-02-28T03:43:20;15.30;;;5.60;;
78207;SDS011;67481;50.244;18.288;2023-02-28T03:46:09;16.15;;;6.07;;
78207;SDS011;67481;50.244;18.288;2023-02-28T03:49:04;11.20;;;4.55;;
78207;SDS011;67481;50.244;18.288;2023-02-28T03:52:03;13.13;;;4.25;;
78207;SDS011;67481;50.244;18.288;2023-02-28T03:54:51;10.70;;;3.85;;
78207;SDS011;67481;50.244;18.288;2023-02-28T03:57:41;12.57;;;3.28;;
78207;SDS011;67481;50.244;18.288;2023-02-28T04:00:39;13.13;;;3.53;;
78207;SDS011;67481;50.244;18.288;2023-02-28T04:03:28;13.48;;;5.00;;
78207;SDS011;67481;50.244;18.288;2023-02-28T04:06:16;14.18;;;5.03;;
78207;SDS011;67481;50.244;18.288;2023-02-28T04:09:03;4.53;;;1.40;;
78207;SDS011;67481;50.244;18.288;2023-02-28T04:11:51;15.48;;;4.50;;
78207;SDS011;67481;50.244;18.288;2023-02-28T04:14:37;11.85;;;4.00;;
78207;SDS011;67481;50.244;18.288;2023-02-28T04:17:23;13.68;;;4.00;;
78207;SDS011;67481;50.244;18.288;2023-02-28T04:20:09;14.93;;;5.30;;
78207;SDS011;67481;50.244;18.288;2023-02-28T04:22:55;7.82;;;2.95;;
78207;SDS011;67481;50.244;18.288;2023-02-28T04:25:42;14.35;;;4.82;;
78207;SDS011;67481;50.244;18.288;2023-02-28T04:28:27;13.57;;;5.78;;
78207;SDS011;67481;50.244;18.288;2023-02-28T04:31:13;14.82;;;4.85;;
78207;SDS011;67481;50.244;18.288;2023-02-28T04:33:58;4.07;;;1.67;;
78207;SDS011;67481;50.244;18.288;2023-02-28T04:36:43;7.70;;;3.17;;
78207;SDS011;67481;50.244;18.288;2023-02-28T04:39:33;10.43;;;4.20;;
78207;SDS011;67481;50.244;18.288;2023-02-28T04:42:20;15.07;;;5.38;;
78207;SDS011;67481;50.244;18.288;2023-02-28T04:45:06;11.57;;;4.50;;
78207;SDS011;67481;50.244;18.288;2023-02-28T04:47:55;11.55;;;4.00;;
78207;SDS011;67481;50.244;18.288;2023-02-28T04:50:40;13.18;;;4.90;;
78207;SDS011;67481;50.244;18.288;2023-02-28T04:53:26;11.10;;;4.00;;
78207;SDS011;67481;50.244;18.288;2023-02-28T04:56:14;13.30;;;4.47;;
78207;SDS011;67481;50.244;18.288;2023-02-28T04:59:01;13.60;;;5.25;;
78207;SDS011;67481;50.244;18.288;2023-02-28T05:01:48;14.40;;;5.38;;
78207;SDS011;67481;50.244;18.288;2023-02-28T05:04:34;16.13;;;5.43;;
78207;SDS011;67481;50.244;18.288;2023-02-28T05:07:19;13.40;;;5.22;;
78207;SDS011;67481;50.244;18.288;2023-02-28T05:10:05;9.63;;;4.10;;
78207;SDS011;67481;50.244;18.288;2023-02-28T05:13:03;13.05;;;5.38;;
78207;SDS011;67481;50.244;18.288;2023-02-28T05:20:08;12.43;;;4.28;;
78207;SDS011;67481;50.244;18.288;2023-02-28T05:23:00;13.57;;;5.47;;
78207;SDS011;67481;50.244;18.288;2023-02-28T05:25:46;11.85;;;3.88;;
78207;SDS011;67481;50.244;18.288;2023-02-28T05:28:32;15.95;;;5.93;;
78207;SDS011;67481;50.244;18.288;2023-02-28T05:31:17;11.85;;;4.45;;
78207;SDS011;67481;50.244;18.288;2023-02-28T05:34:03;10.23;;;4.13;;
78207;SDS011;67481;50.244;18.288;2023-02-28T05:36:49;9.13;;;3.17;;
78207;SDS011;67481;50.244;18.288;2023-02-28T05:39:41;14.07;;;4.63;;
78207;SDS011;67481;50.244;18.288;2023-02-28T05:42:27;11.35;;;4.07;;
78207;SDS011;67481;50.244;18.288;2023-02-28T05:45:13;13.13;;;5.18;;
78207;SDS011;67481;50.244;18.288;2023-02-28T05:48:00;15.20;;;5.22;;
78207;SDS011;67481;50.244;18.288;2023-02-28T05:50:45;12.85;;;5.03;;
78207;SDS011;67481;50.244;18.288;2023-02-28T05:53:31;14.05;;;5.32;;
78207;SDS011;67481;50.244;18.288;2023-02-28T05:56:17;15.15;;;5.15;;
78207;SDS011;67481;50.244;18.288;2023-02-28T05:59:02;11.88;;;4.07;;
78207;SDS011;67481;50.244;18.288;2023-02-28T06:01:48;11.00;;;4.20;;
78207;SDS011;67481;50.244;18.288;2023-02-28T06:04:33;14.40;;;5.90;;
78207;SDS011;67481;50.244;18.288;2023-02-28T06:07:19;11.98;;;4.45;;
78207;SDS011;67481;50.244;18.288;2023-02-28T06:10:04;16.02;;;6.35;;
78207;SDS011;67481;50.244;18.288;2023-02-28T06:12:50;11.10;;;4.07;;
78207;SDS011;67481;50.244;18.288;2023-02-28T06:15:35;10.27;;;4.03;;
78207;SDS011;67481;50.244;18.288;2023-02-28T06:18:21;18.70;;;6.93;;
78207;SDS011;67481;50.244;18.288;2023-02-28T06:21:06;6.50;;;2.80;;
78207;SDS011;67481;50.244;18.288;2023-02-28T06:23:54;7.45;;;3.05;;
78207;SDS011;67481;50.244;18.288;2023-02-28T06:26:41;14.95;;;5.82;;
78207;SDS011;67481;50.244;18.288;2023-02-28T06:29:26;14.57;;;6.10;;
78207;SDS011;67481;50.244;18.288;2023-02-28T06:32:12;16.27;;;5.70;;
78207;SDS011;67481;50.244;18.288;2023-02-28T06:34:58;13.13;;;5.57;;
78207;SDS011;67481;50.244;18.288;2023-02-28T06:37:43;11.40;;;4.13;;
78207;SDS011;67481;50.244;18.288;2023-02-28T06:40:29;14.13;;;4.68;;
78207;SDS011;67481;50.244;18.288;2023-02-28T06:43:19;12.80;;;5.63;;
78207;SDS011;67481;50.244;18.288;2023-02-28T06:46:05;13.32;;;3.80;;
78207;SDS011;67481;50.244;18.288;2023-02-28T06:48:52;11.15;;;4.43;;
78207;SDS011;67481;50.244;18.288;2023-02-28T06:51:38;12.20;;;3.95;;
78207;SDS011;67481;50.244;18.288;2023-02-28T06:54:24;9.63;;;3.35;;
78207;SDS011;67481;50.244;18.288;2023-02-28T06:57:10;14.02;;;5.25;;
78207;SDS011;67481;50.244;18.288;2023-02-28T06:59:55;12.63;;;4.45;;
78207;SDS011;67481;50.244;18.288;2023-02-28T07:02:41;10.45;;;4.05;;
78207;SDS011;67481;50.244;18.288;2023-02-28T07:05:27;14.18;;;3.72;;
78207;SDS011;67481;50.244;18.288;2023-02-28T07:08:13;10.48;;;4.15;;
78207;SDS011;67481;50.244;18.288;2023-02-28T07:10:59;8.57;;;2.95;;
78207;SDS011;67481;50.244;18.288;2023-02-28T07:13:44;9.68;;;2.88;;
78207;SDS011;67481;50.244;18.288;2023-02-28T07:16:30;13.85;;;4.97;;
78207;SDS011;67481;50.244;18.288;2023-02-28T07:19:15;11.75;;;4.40;;
78207;SDS011;67481;50.244;18.288;2023-02-28T07:22:01;12.60;;;5.05;;
78207;SDS011;67481;50.244;18.288;2023-02-28T07:24:48;10.45;;;2.67;;
78207;SDS011;67481;50.244;18.288;2023-02-28T07:27:33;14.43;;;6.32;;
78207;SDS011;67481;50.244;18.288;2023-02-28T07:30:19;10.05;;;4.05;;
78207;SDS011;67481;50.244;18.288;2023-02-28T07:33:05;12.88;;;5.38;;
78207;SDS011;67481;50.244;18.288;2023-02-28T07:35:50;16.80;;;5.20;;
78207;SDS011;67481;50.244;18.288;2023-02-28T07:38:36;17.77;;;6.57;;
78207;SDS011;67481;50.244;18.288;2023-02-28T07:41:22;10.55;;;4.75;;
78207;SDS011;67481;50.244;18.288;2023-02-28T07:44:10;15.70;;;6.22;;
78207;SDS011;67481;50.244;18.288;2023-02-28T07:46:56;18.38;;;6.93;;
78207;SDS011;67481;50.244;18.288;2023-02-28T07:49:42;14.88;;;5.38;;
78207;SDS011;67481;50.244;18.288;2023-02-28T07:52:27;10.68;;;5.10;;
78207;SDS011;67481;50.244;18.288;2023-02-28T07:55:12;13.68;;;4.70;;
78207;SDS011;67481;50.244;18.288;2023-02-28T07:57:59;11.38;;;2.15;;
78207;SDS011;67481;50.244;18.288;2023-02-28T08:00:45;17.05;;;5.72;;
78207;SDS011;67481;50.244;18.288;2023-02-28T08:03:30;18.60;;;6.25;;
78207;SDS011;67481;50.244;18.288;2023-02-28T08:06:17;5.53;;;2.03;;
78207;SDS011;67481;50.244;18.288;2023-02-28T08:09:04;18.90;;;5.97;;
78207;SDS011;67481;50.244;18.288;2023-02-28T08:11:50;19.55;;;8.38;;
78207;SDS011;67481;50.244;18.288;2023-02-28T08:14:36;14.90;;;5.75;;
78207;SDS011;67481;50.244;18.288;2023-02-28T08:17:22;18.23;;;6.70;;
78207;SDS011;67481;50.244;18.288;2023-02-28T08:20:08;26.38;;;8.60;;
78207;SDS011;67481;50.244;18.288;2023-02-28T08:22:55;17.42;;;7.03;;
78207;SDS011;67481;50.244;18.288;2023-02-28T08:25:40;9.30;;;2.85;;
78207;SDS011;67481;50.244;18.288;2023-02-28T08:28:26;22.05;;;7.30;;
78207;SDS011;67481;50.244;18.288;2023-02-28T08:31:12;20.40;;;7.47;;
78207;SDS011;67481;50.244;18.288;2023-02-28T08:33:59;30.95;;;10.82;;
78207;SDS011;67481;50.244;18.288;2023-02-28T08:36:44;17.15;;;5.80;;
78207;SDS011;67481;50.244;18.288;2023-02-28T08:39:30;19.33;;;6.93;;
78207;SDS011;67481;50.244;18.288;2023-02-28T08:42:19;23.63;;;10.13;;
78207;SDS011;67481;50.244;18.288;2023-02-28T08:45:05;22.75;;;7.93;;
78207;SDS011;67481;50.244;18.288;2023-02-28T08:47:51;5.63;;;2.42;;
78207;SDS011;67481;50.244;18.288;2023-02-28T08:50:40;18.27;;;6.80;;
78207;SDS011;67481;50.244;18.288;2023-02-28T08:53:25;23.95;;;7.55;;
78207;SDS011;67481;50.244;18.288;2023-02-28T08:56:12;40.90;;;13.82;;
78207;SDS011;67481;50.244;18.288;2023-02-28T08:58:57;39.33;;;15.57;;
78207;SDS011;67481;50.244;18.288;2023-02-28T09:01:43;28.70;;;10.43;;
78207;SDS011;67481;50.244;18.288;2023-02-28T09:04:28;16.48;;;6.32;;
78207;SDS011;67481;50.244;18.288;2023-02-28T09:07:16;24.85;;;8.90;;
78207;SDS011;67481;50.244;18.288;2023-02-28T09:10:02;22.67;;;8.23;;
78207;SDS011;67481;50.244;18.288;2023-02-28T09:12:48;32.88;;;12.40;;
78207;SDS011;67481;50.244;18.288;2023-02-28T09:15:33;28.02;;;9.48;;
78207;SDS011;67481;50.244;18.288;2023-02-28T09:18:19;24.25;;;8.00;;
78207;SDS011;67481;50.244;18.288;2023-02-28T09:21:05;23.80;;;9.45;;
78207;SDS011;67481;50.244;18.288;2023-02-28T09:23:51;23.02;;;8.68;;
78207;SDS011;67481;50.244;18.288;2023-02-28T09:26:37;18.33;;;7.30;;
78207;SDS011;67481;50.244;18.288;2023-02-28T09:29:27;16.55;;;7.75;;
78207;SDS011;67481;50.244;18.288;2023-02-28T09:32:14;22.50;;;8.40;;
78207;SDS011;67481;50.244;18.288;2023-02-28T09:35:00;25.25;;;10.48;;
78207;SDS011;67481;50.244;18.288;2023-02-28T09:37:45;25.73;;;9.70;;
78207;SDS011;67481;50.244;18.288;2023-02-28T09:40:30;20.27;;;7.45;;
78207;SDS011;67481;50.244;18.288;2023-02-28T09:43:16;21.63;;;8.95;;
78207;SDS011;67481;50.244;18.288;2023-02-28T09:49:15;23.77;;;7.90;;
78207;SDS011;67481;50.244;18.288;2023-02-28T09:52:05;26.60;;;9.85;;
78207;SDS011;67481;50.244;18.288;2023-02-28T09:54:54;26.48;;;10.13;;
78207;SDS011;67481;50.244;18.288;2023-02-28T09:57:40;27.05;;;10.30;;
78207;SDS011;67481;50.244;18.288;2023-02-28T10:03:23;39.25;;;14.07;;
78207;SDS011;67481;50.244;18.288;2023-02-28T10:11:56;27.05;;;10.75;;
78207;SDS011;67481;50.244;18.288;2023-02-28T10:14:45;31.17;;;10.65;;
78207;SDS011;67481;50.244;18.288;2023-02-28T10:17:37;32.10;;;13.15;;
78207;SDS011;67481;50.244;18.288;2023-02-28T10:20:40;27.98;;;11.48;;
78207;SDS011;67481;50.244;18.288;2023-02-28T10:23:28;25.35;;;9.27;;
78207;SDS011;67481;50.244;18.288;2023-02-28T10:26:17;20.70;;;7.63;;
78207;SDS011;67481;50.244;18.288;2023-02-28T10:29:02;26.10;;;10.00;;
78207;SDS011;67481;50.244;18.288;2023-02-28T10:31:48;35.50;;;12.02;;
78207;SDS011;67481;50.244;18.288;2023-02-28T10:34:34;26.15;;;9.55;;
78207;SDS011;67481;50.244;18.288;2023-02-28T10:37:20;18.65;;;6.32;;
78207;SDS011;67481;50.244;18.288;2023-02-28T10:40:06;22.58;;;7.95;;
78207;SDS011;67481;50.244;18.288;2023-02-28T10:45:59;28.25;;;10.07;;
78207;SDS011;67481;50.244;18.288;2023-02-28T10:49:00;22.52;;;9.15;;
78207;SDS011;67481;50.244;18.288;2023-02-28T10:51:57;17.05;;;7.47;;
78207;SDS011;67481;50.244;18.288;2023-02-28T10:54:44;26.55;;;10.23;;
78207;SDS011;67481;50.244;18.288;2023-02-28T10:57:30;28.73;;;9.88;;
78207;SDS011;67481;50.244;18.288;2023-02-28T11:00:20;28.98;;;9.57;;
78207;SDS011;67481;50.244;18.288;2023-02-28T11:03:21;18.77;;;6.78;;
78207;SDS011;67481;50.244;18.288;2023-02-28T11:06:17;16.70;;;6.75;;
78207;SDS011;67481;50.244;18.288;2023-02-28T11:09:13;22.25;;;8.73;;
78207;SDS011;67481;50.244;18.288;2023-02-28T11:12:04;21.70;;;8.80;;
78207;SDS011;67481;50.244;18.288;2023-02-28T11:14:52;19.77;;;8.43;;
78207;SDS011;67481;50.244;18.288;2023-02-28T11:17:40;19.75;;;6.82;;
78207;SDS011;67481;50.244;18.288;2023-02-28T11:20:28;21.48;;;7.82;;
78207;SDS011;67481;50.244;18.288;2023-02-28T11:23:15;18.50;;;5.53;;
78207;SDS011;67481;50.244;18.288;2023-02-28T11:26:02;20.05;;;5.97;;
78207;SDS011;67481;50.244;18.288;2023-02-28T11:28:50;23.98;;;9.30;;
78207;SDS011;67481;50.244;18.288;2023-02-28T11:35:00;10.75;;;4.38;;
78207;SDS011;67481;50.244;18.288;2023-02-28T11:37:48;14.32;;;5.22;;
78207;SDS011;67481;50.244;18.288;2023-02-28T11:40:46;23.10;;;9.45;;
78207;SDS011;67481;50.244;18.288;2023-02-28T11:44:23;20.08;;;8.38;;
78207;SDS011;67481;50.244;18.288;2023-02-28T11:46:56;23.60;;;9.15;;
78207;SDS011;67481;50.244;18.288;2023-02-28T11:49:50;16.35;;;6.28;;
78207;SDS011;67481;50.244;18.288;2023-02-28T11:52:53;26.80;;;9.27;;
78207;SDS011;67481;50.244;18.288;2023-02-28T11:56:01;22.27;;;8.60;;
78207;SDS011;67481;50.244;18.288;2023-02-28T12:08:08;22.90;;;8.57;;
78207;SDS011;67481;50.244;18.288;2023-02-28T12:29:29;26.75;;;10.10;;
78207;SDS011;67481;50.244;18.288;2023-02-28T12:35:05;20.95;;;8.50;;
78207;SDS011;67481;50.244;18.288;2023-02-28T12:37:59;23.17;;;8.75;;
78207;SDS011;67481;50.244;18.288;2023-02-28T12:40:51;24.05;;;9.00;;
78207;SDS011;67481;50.244;18.288;2023-02-28T12:43:44;22.30;;;9.00;;
78207;SDS011;67481;50.244;18.288;2023-02-28T12:46:41;19.67;;;7.20;;
78207;SDS011;67481;50.244;18.288;2023-02-28T12:49:33;23.55;;;8.55;;
78207;SDS011;67481;50.244;18.288;2023-02-28T12:52:28;14.70;;;6.32;;
78207;SDS011;67481;50.244;18.288;2023-02-28T13:14:36;16.23;;;6.38;;
78207;SDS011;67481;50.244;18.288;2023-02-28T13:17:23;24.48;;;9.85;;
78207;SDS011;67481;50.244;18.288;2023-02-28T13:20:15;23.48;;;8.68;;
78207;SDS011;67481;50.244;18.288;2023-02-28T13:23:02;25.80;;;9.45;;
78207;SDS011;67481;50.244;18.288;2023-02-28T13:25:50;23.95;;;9.93;;
78207;SDS011;67481;50.244;18.288;2023-02-28T13:35:14;22.00;;;7.75;;
78207;SDS011;67481;50.244;18.288;2023-02-28T13:38:09;19.33;;;7.75;;
78207;SDS011;67481;50.244;18.288;2023-02-28T13:50:48;15.77;;;6.32;;
78207;SDS011;67481;50.244;18.288;2023-02-28T13:53:41;19.05;;;7.25;;
78207;SDS011;67481;50.244;18.288;2023-02-28T13:57:07;18.13;;;7.13;;
78207;SDS011;67481;50.244;18.288;2023-02-28T14:03:14;17.95;;;7.60;;
78207;SDS011;67481;50.244;18.288;2023-02-28T14:06:28;18.55;;;7.85;;
78207;SDS011;67481;50.244;18.288;2023-02-28T14:15:40;18.27;;;7.68;;
78207;SDS011;67481;50.244;18.288;2023-02-28T14:18:30;20.48;;;8.13;;
78207;SDS011;67481;50.244;18.288;2023-02-28T14:21:28;12.30;;;4.75;;
78207;SDS011;67481;50.244;18.288;2023-02-28T14:27:34;20.02;;;8.07;;
78207;SDS011;67481;50.244;18.288;2023-02-28T14:34:05;15.07;;;5.97;;
78207;SDS011;67481;50.244;18.288;2023-02-28T14:36:58;18.77;;;7.28;;
78207;SDS011;67481;50.244;18.288;2023-02-28T14:39:46;19.98;;;8.05;;
78207;SDS011;67481;50.244;18.288;2023-02-28T14:42:35;20.17;;;8.27;;
78207;SDS011;67481;50.244;18.288;2023-02-28T14:45:31;19.30;;;8.00;;
78207;SDS011;67481;50.244;18.288;2023-02-28T14:52:17;18.15;;;7.28;;
78207;SDS011;67481;50.244;18.288;2023-02-28T14:55:06;13.38;;;5.45;;
78207;SDS011;67481;50.244;18.288;2023-02-28T14:58:00;11.13;;;5.15;;
78207;SDS011;67481;50.244;18.288;2023-02-28T15:00:55;16.85;;;7.47;;
78207;SDS011;67481;50.244;18.288;2023-02-28T15:03:42;18.52;;;7.45;;
78207;SDS011;67481;50.244;18.288;2023-02-28T15:06:29;16.25;;;6.38;;
78207;SDS011;67481;50.244;18.288;2023-02-28T15:09:17;10.75;;;4.35;;
78207;SDS011;67481;50.244;18.288;2023-02-28T15:12:05;22.13;;;7.82;;
78207;SDS011;67481;50.244;18.288;2023-02-28T15:14:51;28.13;;;10.30;;
78207;SDS011;67481;50.244;18.288;2023-02-28T15:17:36;20.27;;;8.48;;
78207;SDS011;67481;50.244;18.288;2023-02-28T15:20:22;16.70;;;7.40;;
78207;SDS011;67481;50.244;18.288;2023-02-28T15:23:08;15.15;;;6.20;;
78207;SDS011;67481;50.244;18.288;2023-02-28T15:25:54;17.05;;;7.15;;
78207;SDS011;67481;50.244;18.288;2023-02-28T15:28:40;14.60;;;7.00;;
78207;SDS011;67481;50.244;18.288;2023-02-28T15:31:29;14.48;;;5.50;;
78207;SDS011;67481;50.244;18.288;2023-02-28T15:41:36;18.13;;;7.18;;
78207;SDS011;67481;50.244;18.288;2023-02-28T15:44:26;22.10;;;8.15;;
78207;SDS011;67481;50.244;18.288;2023-02-28T15:47:16;22.42;;;8.55;;
78207;SDS011;67481;50.244;18.288;2023-02-28T15:50:12;21.52;;;7.95;;
78207;SDS011;67481;50.244;18.288;2023-02-28T15:53:01;17.05;;;7.75;;
78207;SDS011;67481;50.244;18.288;2023-02-28T15:55:58;20.88;;;7.80;;
78207;SDS011;67481;50.244;18.288;2023-02-28T15:59:12;20.63;;;8.52;;
78207;SDS011;67481;50.244;18.288;2023-02-28T16:07:56;22.60;;;9.30;;
78207;SDS011;67481;50.244;18.288;2023-02-28T16:10:46;23.25;;;8.43;;
78207;SDS011;67481;50.244;18.288;2023-02-28T16:13:41;21.17;;;8.63;;
78207;SDS011;67481;50.244;18.288;2023-02-28T16:17:23;19.85;;;8.27;;
78207;SDS011;67481;50.244;18.288;2023-02-28T16:20:14;20.02;;;7.68;;
78207;SDS011;67481;50.244;18.288;2023-02-28T16:23:05;21.20;;;7.78;;
78207;SDS011;67481;50.244;18.288;2023-02-28T16:25:51;19.58;;;7.43;;
78207;SDS011;67481;50.244;18.288;2023-02-28T16:28:37;24.58;;;8.38;;
78207;SDS011;67481;50.244;18.288;2023-02-28T16:31:23;19.55;;;7.57;;
78207;SDS011;67481;50.244;18.288;2023-02-28T16:34:08;20.70;;;7.43;;
78207;SDS011;67481;50.244;18.288;2023-02-28T16:36:55;18.77;;;8.05;;
78207;SDS011;67481;50.244;18.288;2023-02-28T16:39:42;22.65;;;7.03;;
78207;SDS011;67481;50.244;18.288;2023-02-28T16:42:28;18.42;;;7.28;;
78207;SDS011;67481;50.244;18.288;2023-02-28T16:45:16;15.93;;;6.55;;
78207;SDS011;67481;50.244;18.288;2023-02-28T16:48:07;19.40;;;6.53;;
78207;SDS011;67481;50.244;18.288;2023-02-28T16:50:57;18.88;;;6.47;;
78207;SDS011;67481;50.244;18.288;2023-02-28T16:53:43;19.77;;;7.28;;
78207;SDS011;67481;50.244;18.288;2023-02-28T16:56:29;15.93;;;7.00;;
78207;SDS011;67481;50.244;18.288;2023-02-28T16:59:17;20.17;;;7.15;;
78207;SDS011;67481;50.244;18.288;2023-02-28T17:02:09;14.90;;;5.88;;
78207;SDS011;67481;50.244;18.288;2023-02-28T17:05:12;20.05;;;6.20;;
78207;SDS011;67481;50.244;18.288;2023-02-28T17:07:59;18.92;;;6.03;;
78207;SDS011;67481;50.244;18.288;2023-02-28T17:10:45;17.95;;;7.18;;
78207;SDS011;67481;50.244;18.288;2023-02-28T17:13:31;18.77;;;7.03;;
78207;SDS011;67481;50.244;18.288;2023-02-28T17:16:20;19.67;;;7.57;;
78207;SDS011;67481;50.244;18.288;2023-02-28T17:19:11;19.02;;;6.97;;
78207;SDS011;67481;50.244;18.288;2023-02-28T17:21:58;16.90;;;6.60;;
78207;SDS011;67481;50.244;18.288;2023-02-28T17:24:44;22.20;;;7.63;;
78207;SDS011;67481;50.244;18.288;2023-02-28T17:27:30;15.85;;;7.32;;
78207;SDS011;67481;50.244;18.288;2023-02-28T17:30:16;21.50;;;9.07;;
78207;SDS011;67481;50.244;18.288;2023-02-28T17:33:04;28.55;;;9.35;;
78207;SDS011;67481;50.244;18.288;2023-02-28T17:35:49;30.83;;;13.73;;
78207;SDS011;67481;50.244;18.288;2023-02-28T17:38:35;29.15;;;11.43;;
78207;SDS011;67481;50.244;18.288;2023-02-28T17:41:21;24.17;;;11.70;;
78207;SDS011;67481;50.244;18.288;2023-02-28T17:44:07;18.85;;;8.35;;
78207;SDS011;67481;50.244;18.288;2023-02-28T17:46:54;20.15;;;10.15;;
78207;SDS011;67481;50.244;18.288;2023-02-28T17:49:41;19.40;;;7.88;;
78207;SDS011;67481;50.244;18.288;2023-02-28T17:52:27;17.85;;;8.38;;
78207;SDS011;67481;50.244;18.288;2023-02-28T17:55:14;20.92;;;9.18;;
78207;SDS011;67481;50.244;18.288;2023-02-28T17:58:00;23.73;;;8.98;;
78207;SDS011;67481;50.244;18.288;2023-02-28T18:00:46;25.10;;;9.75;;
78207;SDS011;67481;50.244;18.288;2023-02-28T18:03:35;23.85;;;9.50;;
78207;SDS011;67481;50.244;18.288;2023-02-28T18:06:21;27.10;;;10.80;;
78207;SDS011;67481;50.244;18.288;2023-02-28T18:09:10;21.55;;;9.25;;
78207;SDS011;67481;50.244;18.288;2023-02-28T18:11:55;25.63;;;9.98;;
78207;SDS011;67481;50.244;18.288;2023-02-28T18:14:41;25.65;;;11.25;;
78207;SDS011;67481;50.244;18.288;2023-02-28T18:17:27;27.73;;;12.45;;
78207;SDS011;67481;50.244;18.288;2023-02-28T18:20:13;28.77;;;12.55;;
78207;SDS011;67481;50.244;18.288;2023-02-28T18:22:58;28.55;;;10.65;;
78207;SDS011;67481;50.244;18.288;2023-02-28T18:25:44;29.48;;;11.45;;
78207;SDS011;67481;50.244;18.288;2023-02-28T18:28:29;24.65;;;9.65;;
78207;SDS011;67481;50.244;18.288;2023-02-28T18:31:16;27.67;;;11.52;;
78207;SDS011;67481;50.244;18.288;2023-02-28T18:34:02;27.33;;;11.48;;
78207;SDS011;67481;50.244;18.288;2023-02-28T18:36:50;26.13;;;10.13;;
78207;SDS011;67481;50.244;18.288;2023-02-28T18:39:37;34.85;;;12.98;;
78207;SDS011;67481;50.244;18.288;2023-02-28T18:42:22;30.27;;;10.77;;
78207;SDS011;67481;50.244;18.288;2023-02-28T18:45:08;27.48;;;10.82;;
78207;SDS011;67481;50.244;18.288;2023-02-28T18:47:54;30.33;;;10.73;;
78207;SDS011;67481;50.244;18.288;2023-02-28T18:50:40;25.60;;;9.35;;
78207;SDS011;67481;50.244;18.288;2023-02-28T18:53:26;25.15;;;9.55;;
78207;SDS011;67481;50.244;18.288;2023-02-28T18:56:13;27.92;;;9.50;;